San Francisco, California
Traffic Map
Current Weather Conditions
San Francisco, California
Clear
Clear
12°
Feels Like: 12°
Wind Chill: 12° Ceiling: Unl
Heat Index: 12° Visibility: 10mi
Dew Point: Wind: 12mph
Humidity: 83% Direction: 280° (W)
Pressure: 30.12in Gusts: 0mph
Raw Report DataKSFO 020656Z 28010KT 10SM CLR 12/09 A3012 RMK AO2 SLP199 T01170089
Traffic Incident Summary
Active as of:
Severity:
Category:
InformationThere was an issue retrieving the traffic information for this location. Please try a different location or try again shortly.
Advertisements
Track Severe Weather on mobile